Time;durP1;ratioP1;P1;durP2;ratioP2;P2;SDS_P1;SDS_P2;PMS_P1;PMS_P2;Temp;Humidity;BMP_temperature;BMP_pressure;BME280_temperature;BME280_humidity;BME280_pressure;Samples;Min_cycle;Max_cycle;Signal;HPM_P1;HPM_P2
2021/11/11 00:01:22;;;;;;;47.08;24.92;;;;;;;11.60;100.00;102408.06;5031391;28;20057;-31
2021/11/11 00:03:50;;;;;;;42.97;23.15;;;;;;;11.60;100.00;102405.28;5031842;28;20054;-32
2021/11/11 00:06:18;;;;;;;37.30;21.00;;;;;;;11.62;100.00;102400.25;5031864;28;20056;-31
2021/11/11 00:08:46;;;;;;;45.88;24.10;;;;;;;11.62;100.00;102400.25;5031466;28;20060;-32
2021/11/11 00:11:13;;;;;;;45.22;23.02;;;;;;;11.64;100.00;102409.22;5031395;28;20052;-32
2021/11/11 00:13:42;;;;;;;36.45;19.95;;;;;;;11.63;100.00;102400.00;5031775;28;20040;-32
2021/11/11 00:16:10;;;;;;;48.83;25.15;;;;;;;11.63;100.00;102402.78;5030731;28;20525;-32
2021/11/11 00:18:38;;;;;;;42.08;22.63;;;;;;;11.64;100.00;102398.03;5031820;28;20049;-31
2021/11/11 00:21:06;;;;;;;31.23;18.70;;;;;;;11.65;100.00;102399.72;5030767;28;20805;-32
2021/11/11 00:23:34;;;;;;;43.67;24.08;;;;;;;11.64;100.00;102395.25;5018634;28;20049;-33
2021/11/11 00:26:01;;;;;;;44.45;21.70;;;;;;;11.64;100.00;102384.91;5031407;28;20045;-32
2021/11/11 00:28:29;;;;;;;48.92;23.38;;;;;;;11.65;100.00;102388.53;5030998;28;20045;-33
2021/11/11 00:30:58;;;;;;;55.78;25.90;;;;;;;11.64;100.00;102392.44;5029740;28;20045;-33
2021/11/11 00:33:27;;;;;;;43.83;22.92;;;;;;;11.65;100.00;102382.97;5031456;28;20068;-33
2021/11/11 00:35:55;;;;;;;47.42;23.67;;;;;;;11.66;100.00;102390.22;5030612;28;20132;-34
2021/11/11 00:38:22;;;;;;;39.58;21.83;;;;;;;11.65;100.00;102389.38;5030094;28;20053;-32
2021/11/11 00:40:50;;;;;;;43.08;22.60;;;;;;;11.67;100.00;102386.31;5029749;28;20060;-35
2021/11/11 00:43:19;;;;;;;47.00;24.15;;;;;;;11.67;100.00;102392.75;5030875;28;20050;-31
2021/11/11 00:45:47;;;;;;;44.53;23.48;;;;;;;11.68;100.00;102393.59;5030754;28;20495;-32
2021/11/11 00:48:16;;;;;;;49.65;22.65;;;;;;;11.70;100.00;102388.59;5031175;28;20055;-32
2021/11/11 00:50:44;;;;;;;38.63;21.38;;;;;;;11.69;100.00;102384.09;5028966;28;20049;-32
2021/11/11 00:53:12;;;;;;;39.00;20.27;;;;;;;11.70;100.00;102385.78;5031093;28;20402;-32
2021/11/11 00:55:40;;;;;;;41.30;22.67;;;;;;;11.68;100.00;102380.47;5031052;28;20120;-32
2021/11/11 00:58:18;;;;;;;43.70;25.05;;;;;;;11.68;100.00;102388.00;5029236;28;20213;-32
2021/11/11 01:00:46;;;;;;;49.88;22.98;;;;;;;11.69;100.00;102384.94;5030606;28;20045;-32
2021/11/11 01:03:19;;;;;;;37.20;20.38;;;;;;;11.68;100.00;102388.84;5030229;28;20521;-32
2021/11/11 01:05:47;;;;;;;37.63;20.02;;;;;;;11.68;100.00;102388.00;5030365;28;20092;-35
2021/11/11 01:08:14;;;;;;;40.92;20.92;;;;;;;11.66;100.00;102390.22;5029541;28;20041;-31
2021/11/11 01:10:42;;;;;;;34.85;19.67;;;;;;;11.66;100.00;102396.66;5030387;28;20045;-31
2021/11/11 01:13:10;;;;;;;40.45;20.70;;;;;;;11.61;100.00;102398.56;5030583;28;20057;-32
2021/11/11 01:15:38;;;;;;;34.25;19.52;;;;;;;11.57;100.00;102401.09;5029463;28;20045;-32
2021/11/11 01:18:06;;;;;;;48.78;23.30;;;;;;;11.54;100.00;102409.16;5028794;28;20499;-35
2021/11/11 01:20:35;;;;;;;37.47;19.45;;;;;;;11.49;100.00;102392.34;5030967;28;20132;-32
2021/11/11 01:23:04;;;;;;;36.78;18.95;;;;;;;11.49;100.00;102397.94;5030595;28;20056;-31
2021/11/11 01:25:35;;;;;;;34.38;19.80;;;;;;;11.46;100.00;102388.13;5030145;28;20560;-33
2021/11/11 01:28:03;;;;;;;31.95;18.60;;;;;;;11.45;100.00;102388.41;5029161;28;20050;-35
2021/11/11 01:30:34;;;;;;;43.28;23.05;;;;;;;11.37;100.00;102382.22;5029323;28;20551;-40
2021/11/11 01:33:11;;;;;;;32.97;19.02;;;;;;;11.39;100.00;102384.72;5022630;28;20068;-36
2021/11/11 01:35:41;;;;;;;34.55;20.02;;;;;;;11.39;100.00;102391.16;5030663;28;20068;-36
2021/11/11 01:38:14;;;;;;;35.38;18.45;;;;;;;11.39;100.00;102379.97;5045736;28;20050;-35
2021/11/11 01:40:43;;;;;;;37.25;20.25;;;;;;;11.41;100.00;102385.28;5030199;28;20063;-33
2021/11/11 01:43:11;;;;;;;33.70;20.05;;;;;;;11.41;100.00;102376.91;5030353;28;20125;-33
2021/11/11 01:45:42;;;;;;;42.95;23.25;;;;;;;11.44;100.00;102378.31;5028894;28;20073;-33
2021/11/11 01:48:19;;;;;;;40.40;22.23;;;;;;;11.44;100.00;102375.53;5026966;28;20145;-35
2021/11/11 01:50:48;;;;;;;33.00;18.70;;;;;;;11.47;100.00;102375.84;5029210;28;20045;-34
2021/11/11 01:53:16;;;;;;;38.53;21.45;;;;;;;11.51;100.00;102370.56;5028216;28;20049;-31
2021/11/11 01:55:47;;;;;;;45.17;22.25;;;;;;;11.53;100.00;102368.34;5029486;28;20049;-31
2021/11/11 01:58:17;;;;;;;42.23;20.07;;;;;;;11.54;100.00;102373.66;5030387;28;20085;-32
2021/11/11 02:00:49;;;;;;;40.40;21.00;;;;;;;11.56;100.00;102371.44;5029000;28;20290;-32
2021/11/11 02:03:26;;;;;;;39.88;21.42;;;;;;;11.55;100.00;102372.56;5028548;28;20045;-31
2021/11/11 02:06:00;;;;;;;38.85;21.27;;;;;;;11.57;100.00;102375.09;5029469;28;20086;-31
2021/11/11 02:08:44;;;;;;;37.60;19.92;;;;;;;11.56;100.00;102373.41;5028981;28;20060;-32
2021/11/11 02:11:11;;;;;;;37.70;19.83;;;;;;;11.55;100.00;102361.38;5029470;28;20049;-31
2021/11/11 02:13:40;;;;;;;32.80;19.33;;;;;;;11.55;100.00;102366.13;5029189;28;20045;-31
2021/11/11 02:16:16;;;;;;;35.38;20.38;;;;;;;11.54;100.00;102364.44;5030360;28;20049;-31
2021/11/11 02:18:44;;;;;;;39.35;19.50;;;;;;;11.54;100.00;102364.44;5032174;28;20057;-31
2021/11/11 02:21:16;;;;;;;35.50;20.63;;;;;;;11.52;100.00;102361.91;5032315;28;20387;-30
2021/11/11 02:23:53;;;;;;;30.98;18.02;;;;;;;11.50;100.00;102363.28;5032146;28;20137;-31
2021/11/11 02:26:39;;;;;;;31.55;17.55;;;;;;;11.48;100.00;102354.31;5034205;28;20057;-30
2021/11/11 02:29:17;;;;;;;33.63;19.67;;;;;;;11.49;100.00;102353.22;5031442;28;20446;-31
2021/11/11 02:31:45;;;;;;;36.40;19.05;;;;;;;11.50;100.00;102361.34;5034040;28;20041;-33
2021/11/11 02:34:19;;;;;;;36.30;20.17;;;;;;;11.48;100.00;102357.97;5031854;28;20053;-32
2021/11/11 02:36:59;;;;;;;37.72;19.80;;;;;;;11.50;100.00;102355.75;5033422;28;20399;-32
2021/11/11 02:39:50;;;;;;;49.50;21.80;;;;;;;11.49;100.00;102344.81;5022686;28;20060;-31
2021/11/11 02:42:25;;;;;;;30.17;18.45;;;;;;;11.52;100.00;102349.88;5031847;28;20107;-33
2021/11/11 02:44:57;;;;;;;33.08;19.80;;;;;;;11.54;100.00;102353.25;5031844;28;20053;-31
2021/11/11 02:47:30;;;;;;;37.58;19.13;;;;;;;11.55;100.00;102357.75;5033736;28;20396;-31
2021/11/11 02:49:58;;;;;;;37.05;18.90;;;;;;;11.56;100.00;102351.88;5031141;28;20474;-32
2021/11/11 02:52:27;;;;;;;43.42;21.73;;;;;;;11.58;100.00;102346.88;5033778;28;20418;-33
2021/11/11 02:54:55;;;;;;;39.35;21.25;;;;;;;11.60;100.00;102349.34;5031465;28;20041;-33
2021/11/11 02:57:26;;;;;;;44.33;23.10;;;;;;;11.63;100.00;102352.47;5020759;28;20065;-31
2021/11/11 02:59:56;;;;;;;33.33;18.67;;;;;;;11.66;100.00;102354.72;5032849;28;20406;-33
2021/11/11 03:02:26;;;;;;;47.67;22.15;;;;;;;11.69;100.00;102356.16;5032235;28;20057;-32
2021/11/11 03:04:57;;;;;;;46.80;23.63;;;;;;;11.69;100.00;102351.41;5032368;28;20111;-33
2021/11/11 03:07:31;;;;;;;50.50;25.05;;;;;;;11.69;100.00;102348.59;5031986;28;20132;-32
2021/11/11 03:09:59;;;;;;;48.22;24.33;;;;;;;11.70;100.00;102352.25;5030708;28;20053;-31
2021/11/11 03:12:29;;;;;;;46.50;22.85;;;;;;;11.73;100.00;102346.09;5028535;28;20517;-31
2021/11/11 03:14:58;;;;;;;50.55;23.88;;;;;;;11.74;100.00;102348.63;5031150;28;20049;-31
2021/11/11 03:17:26;;;;;;;43.05;22.95;;;;;;;11.78;100.00;102353.72;5027892;28;20455;-32
2021/11/11 03:19:54;;;;;;;40.92;21.20;;;;;;;11.79;100.00;102361.81;5023740;28;20057;-35
2021/11/11 03:22:22;;;;;;;46.85;25.05;;;;;;;11.81;100.00;102353.16;5032662;28;20049;-37
2021/11/11 03:24:55;;;;;;;54.23;24.87;;;;;;;11.81;100.00;102355.94;5030718;28;20598;-35
2021/11/11 03:27:32;;;;;;;44.13;22.50;;;;;;;11.81;100.00;102351.19;5030814;28;20422;-34
2021/11/11 03:30:01;;;;;;;45.33;22.33;;;;;;;11.84;100.00;102353.47;5032447;28;20056;-31
2021/11/11 03:32:30;;;;;;;47.75;23.35;;;;;;;11.84;100.00;102359.06;5030769;28;20063;-33
2021/11/11 03:35:00;;;;;;;59.58;25.05;;;;;;;11.86;100.00;102356.00;5030799;28;20084;-35
2021/11/11 03:37:29;;;;;;;49.85;23.70;;;;;;;11.89;100.00;102361.88;5031221;28;20049;-32
2021/11/11 03:40:00;;;;;;;37.17;18.83;;;;;;;11.93;100.00;102356.59;5029998;28;20470;-30
2021/11/11 03:42:28;;;;;;;35.60;18.40;;;;;;;11.94;100.00;102359.13;5032453;28;20049;-32
2021/11/11 03:44:56;;;;;;;34.53;19.10;;;;;;;11.95;100.00;102355.22;5030349;28;20054;-30
2021/11/11 03:47:26;;;;;;;36.70;19.77;;;;;;;11.98;100.00;102365.03;5030979;28;20057;-33
2021/11/11 03:49:54;;;;;;;40.55;20.98;;;;;;;12.00;100.00;102357.19;5031894;28;20049;-32
2021/11/11 03:52:22;;;;;;;37.65;19.70;;;;;;;11.99;100.00;102356.34;5030349;28;20132;-32
2021/11/11 03:54:51;;;;;;;45.05;20.75;;;;;;;12.02;100.00;102363.34;5032061;28;20088;-33
2021/11/11 03:57:23;;;;;;;37.40;18.48;;;;;;;12.04;100.00;102358.31;5030199;28;20042;-31
2021/11/11 03:59:51;;;;;;;38.47;18.90;;;;;;;12.05;100.00;102358.06;5030222;28;20137;-31
2021/11/11 04:02:23;;;;;;;29.98;15.75;;;;;;;12.07;100.00;102369.81;5030229;28;20053;-32
2021/11/11 04:04:52;;;;;;;22.98;11.52;;;;;;;12.11;100.00;102364.53;5032286;28;20052;-32
2021/11/11 04:07:20;;;;;;;15.73;9.25;;;;;;;12.14;100.00;102363.97;5029934;28;20132;-31
2021/11/11 04:09:51;;;;;;;12.43;6.60;;;;;;;12.17;100.00;102373.78;5020565;28;20072;-32
2021/11/11 04:12:19;;;;;;;6.78;4.00;;;;;;;12.18;100.00;102373.53;5030267;28;20191;-31
2021/11/11 04:14:48;;;;;;;5.72;2.70;;;;;;;12.22;100.00;102371.00;5031056;28;20114;-32
2021/11/11 04:17:16;;;;;;;5.82;1.95;;;;;;;12.23;100.00;102372.69;5030418;28;20473;-31
2021/11/11 04:19:44;;;;;;;4.82;1.25;;;;;;;12.24;100.00;102375.19;5030572;28;20063;-33
2021/11/11 04:22:12;;;;;;;2.30;0.80;;;;;;;12.25;100.00;102370.44;5029817;28;20101;-31
2021/11/11 04:24:45;;;;;;;2.45;0.60;;;;;;;12.28;100.00;102378.31;5030640;28;20084;-33
2021/11/11 04:27:17;;;;;;;2.58;0.70;;;;;;;12.27;100.00;102369.06;5030940;28;20513;-31
2021/11/11 04:29:53;;;;;;;;;;;;;;;12.23;100.00;102370.72;5030922;28;20464;-31
2021/11/11 04:32:23;;;;;;;1.42;0.38;;;;;;;12.20;100.00;102370.41;5030236;28;19948;-31
2021/11/11 04:34:56;;;;;;;1.50;0.35;;;;;;;12.24;100.00;102374.34;5029658;28;20052;-32
2021/11/11 04:37:29;;;;;;;3.42;0.50;;;;;;;12.26;100.00;102374.94;5030166;28;20437;-31
2021/11/11 04:40:30;;;;;;;2.25;0.40;;;;;;;12.26;100.00;102377.72;5029387;28;20115;-32
2021/11/11 04:43:19;;;;;;;3.28;0.57;;;;;;;12.27;100.00;102371.03;5029140;28;20053;-35
2021/11/11 04:46:11;;;;;;;3.17;0.70;;;;;;;12.27;100.00;102369.06;5028590;28;20042;-32
2021/11/11 04:51:54;;;;;;;2.58;0.60;;;;;;;12.28;100.00;102370.75;5021400;28;20073;-31
2021/11/11 05:00:06;;;;;;;2.75;0.88;;;;;;;12.29;100.00;102371.59;5022379;28;20124;-32
2021/11/11 05:05:33;;;;;;;4.68;0.98;;;;;;;12.29;100.00;102374.38;5025688;28;20053;-31
2021/11/11 05:08:01;;;;;;;5.15;0.95;;;;;;;12.30;100.00;102373.28;5015722;28;20073;-33
2021/11/11 05:10:29;;;;;;;3.22;0.77;;;;;;;12.30;100.00;102376.06;5030353;28;20111;-31
2021/11/11 05:13:00;;;;;;;3.50;1.20;;;;;;;12.28;100.00;102372.69;5029294;28;20054;-32
2021/11/11 05:15:29;;;;;;;2.00;0.70;;;;;;;12.27;100.00;102373.81;5022554;28;20303;-34
2021/11/11 05:17:58;;;;;;;4.78;1.00;;;;;;;12.26;100.00;102372.13;5028917;28;20045;-34
2021/11/11 05:20:30;;;;;;;3.53;0.63;;;;;;;12.25;100.00;102365.69;5029707;28;20052;-31
2021/11/11 05:22:59;;;;;;;3.25;0.77;;;;;;;12.26;100.00;102366.53;5029073;28;20050;-33
2021/11/11 05:25:27;;;;;;;3.58;0.80;;;;;;;12.25;100.00;102367.66;5030116;28;20042;-31
2021/11/11 05:27:55;;;;;;;1.40;0.50;;;;;;;12.26;100.00;102366.53;5029357;28;20499;-32
2021/11/11 05:30:25;;;;;;;2.45;0.50;;;;;;;12.26;100.00;102369.34;5028791;28;20079;-33
2021/11/11 05:32:53;;;;;;;3.03;0.80;;;;;;;12.24;100.00;102369.59;5030544;28;20515;-31
2021/11/11 05:35:27;;;;;;;3.05;0.70;;;;;;;12.24;100.00;102374.34;5029173;28;20053;-33
2021/11/11 05:37:56;;;;;;;5.43;0.80;;;;;;;12.23;100.00;102373.50;5028802;28;20054;-34
2021/11/11 05:40:26;;;;;;;1.83;0.80;;;;;;;12.22;100.00;102379.38;5029020;28;20693;-33
2021/11/11 05:42:55;;;;;;;3.45;0.90;;;;;;;12.22;100.00;102387.78;5019996;28;20124;-33
2021/11/11 05:45:25;;;;;;;3.25;0.80;;;;;;;12.20;100.00;102384.41;5028818;28;20387;-32
2021/11/11 05:47:57;;;;;;;4.13;0.85;;;;;;;12.20;100.00;102388.06;5029255;28;20042;-31
2021/11/11 05:50:27;;;;;;;4.85;1.00;;;;;;;12.19;100.00;102379.97;5029061;28;20419;-32
2021/11/11 05:52:55;;;;;;;4.80;0.85;;;;;;;12.21;100.00;102386.09;5033508;28;20080;-33
2021/11/11 05:55:23;;;;;;;4.40;0.95;;;;;;;12.20;100.00;102387.22;5034168;28;20395;-34
2021/11/11 05:57:54;;;;;;;3.85;0.80;;;;;;;12.20;100.00;102384.41;5032767;28;20136;-33
2021/11/11 06:00:22;;;;;;;3.08;0.60;;;;;;;12.19;100.00;102382.75;5032446;28;20049;-34
2021/11/11 06:03:04;;;;;;;5.10;1.10;;;;;;;12.18;100.00;102379.13;5032732;28;20549;-33
2021/11/11 06:05:32;;;;;;;2.38;0.80;;;;;;;12.18;100.00;102375.47;5032580;28;20055;-32
2021/11/11 06:08:01;;;;;;;2.60;0.70;;;;;;;12.21;100.00;102374.91;5032640;28;20081;-30
2021/11/11 06:10:29;;;;;;;4.35;0.82;;;;;;;12.21;100.00;102377.69;5032795;28;20564;-31
2021/11/11 06:12:58;;;;;;;3.13;0.70;;;;;;;12.22;100.00;102377.44;5033358;28;20384;-35
2021/11/11 06:15:26;;;;;;;2.45;0.50;;;;;;;12.22;100.00;102374.63;5032838;28;20052;-34
2021/11/11 06:17:58;;;;;;;4.63;0.70;;;;;;;12.23;100.00;102378.28;5033707;28;20048;-31
2021/11/11 06:20:31;;;;;;;1.23;0.32;;;;;;;12.24;100.00;102374.34;5020661;28;20059;-33
2021/11/11 06:23:01;;;;;;;2.15;0.52;;;;;;;12.22;100.00;102374.63;5032405;28;20126;-33
2021/11/11 06:25:29;;;;;;;3.40;0.80;;;;;;;12.22;100.00;102379.38;5032232;28;20042;-34
2021/11/11 06:28:04;;;;;;;3.55;0.60;;;;;;;12.22;100.00;102374.63;5031234;28;20097;-33
2021/11/11 06:30:32;;;;;;;5.32;0.73;;;;;;;12.23;100.00;102372.69;5031111;28;20128;-32
2021/11/11 06:33:00;;;;;;;3.78;0.65;;;;;;;12.23;100.00;102372.69;5031298;28;20118;-32
2021/11/11 06:35:32;;;;;;;2.28;0.60;;;;;;;12.22;100.00;102380.22;5031298;28;20495;-35
2021/11/11 06:38:02;;;;;;;3.17;1.20;;;;;;;12.20;100.00;102392.81;5033271;28;20056;-32
2021/11/11 06:40:33;;;;;;;2.97;0.70;;;;;;;12.18;100.00;102397.88;5033509;28;20057;-32
2021/11/11 06:43:04;;;;;;;3.72;0.80;;;;;;;12.15;100.00;102399.25;5029537;28;20049;-33
2021/11/11 06:45:36;;;;;;;5.05;1.35;;;;;;;12.14;100.00;102402.31;5033729;28;20487;-33
2021/11/11 06:48:04;;;;;;;3.00;0.90;;;;;;;12.12;100.00;102405.38;5032040;28;20380;-32
2021/11/11 06:50:32;;;;;;;3.00;0.65;;;;;;;12.13;100.00;102411.81;5033488;28;20052;-32
2021/11/11 06:53:09;;;;;;;2.63;0.80;;;;;;;12.10;100.00;102410.41;5032658;28;20057;-32
2021/11/11 06:55:39;;;;;;;2.08;0.60;;;;;;;12.09;100.00;102403.13;5032517;28;20049;-31
2021/11/11 06:58:08;;;;;;;1.52;0.50;;;;;;;12.09;100.00;102411.50;5032244;28;20420;-33
2021/11/11 07:00:37;;;;;;;6.68;0.90;;;;;;;12.07;100.00;102409.00;5031559;28;20530;-33
2021/11/11 07:03:11;;;;;;;2.17;0.70;;;;;;;12.07;100.00;102405.34;5028821;28;20050;-35
2021/11/11 07:05:43;;;;;;;4.10;0.60;;;;;;;12.06;100.00;102406.47;5020682;28;20447;-34
2021/11/11 07:08:13;;;;;;;3.92;0.63;;;;;;;12.07;100.00;102413.75;5032158;28;20094;-37
2021/11/11 07:10:42;;;;;;;3.55;0.80;;;;;;;12.07;100.00;102414.59;5031615;28;20069;-33
2021/11/11 07:13:12;;;;;;;3.15;0.80;;;;;;;12.08;100.00;102421.88;5032395;28;20049;-34
2021/11/11 07:15:41;;;;;;;2.50;0.65;;;;;;;12.07;100.00;102416.53;5031706;28;20430;-32
2021/11/11 07:18:11;;;;;;;2.63;0.80;;;;;;;12.06;100.00;102417.66;5031910;28;20048;-34
2021/11/11 07:20:40;;;;;;;2.05;0.60;;;;;;;12.05;100.00;102415.97;5032883;28;20144;-33
2021/11/11 07:23:08;;;;;;;1.77;0.70;;;;;;;12.05;100.00;102422.41;5031975;28;20064;-31
2021/11/11 07:25:36;;;;;;;3.10;0.77;;;;;;;12.06;100.00;102420.44;5032715;28;20049;-31
2021/11/11 07:28:04;;;;;;;2.83;0.75;;;;;;;12.07;100.00;102425.78;5032331;28;20046;-32
2021/11/11 07:30:34;;;;;;;3.45;0.80;;;;;;;12.08;100.00;102430.25;5031895;28;20053;-32
2021/11/11 07:33:02;;;;;;;2.75;0.70;;;;;;;12.08;100.00;102427.47;5032435;28;20054;-32
2021/11/11 07:35:30;;;;;;;4.07;0.95;;;;;;;12.12;100.00;102432.53;5032398;28;20053;-33
2021/11/11 07:37:58;;;;;;;1.42;0.70;;;;;;;12.14;100.00;102430.28;5031805;28;20106;-32
2021/11/11 07:40:28;;;;;;;4.45;0.65;;;;;;;12.16;100.00;102433.66;5032450;28;20054;-33
2021/11/11 07:42:56;;;;;;;2.70;0.65;;;;;;;12.17;100.00;102441.78;5032232;28;20053;-32
2021/11/11 07:45:39;;;;;;;1.85;0.80;;;;;;;12.18;100.00;102437.88;5026496;28;20355;-33
2021/11/11 07:48:07;;;;;;;1.60;0.65;;;;;;;12.21;100.00;102450.47;5032178;28;20054;-35
2021/11/11 07:50:38;;;;;;;3.28;0.93;;;;;;;12.23;100.00;102456.63;5031923;28;20608;-33
2021/11/11 07:53:09;;;;;;;2.05;0.52;;;;;;;12.24;100.00;102447.97;5031763;28;20053;-31
2021/11/11 07:55:39;;;;;;;1.92;0.60;;;;;;;12.26;100.00;102450.50;5031940;28;20068;-34
2021/11/11 07:58:08;;;;;;;5.18;0.90;;;;;;;12.28;100.00;102456.66;5031759;28;20068;-32
2021/11/11 08:00:36;;;;;;;1.73;0.60;;;;;;;12.32;100.00;102460.63;5031954;28;20045;-34
2021/11/11 08:03:05;;;;;;;3.25;1.25;;;;;;;12.34;100.00;102462.03;5032185;28;20128;-32
2021/11/11 08:05:34;;;;;;;2.92;0.60;;;;;;;12.36;100.00;102457.00;5030045;28;20037;-33
2021/11/11 08:08:05;;;;;;;4.22;0.70;;;;;;;12.39;100.00;102458.41;5031793;28;20050;-32
2021/11/11 08:10:34;;;;;;;2.78;0.77;;;;;;;12.40;100.00;102462.88;5031647;28;20164;-34
2021/11/11 08:13:02;;;;;;;1.55;0.70;;;;;;;12.42;100.00;102460.66;5031542;28;20052;-34
2021/11/11 08:15:30;;;;;;;1.45;0.70;;;;;;;12.46;100.00;102470.19;5031012;28;20045;-32
2021/11/11 08:17:58;;;;;;;2.20;0.60;;;;;;;12.48;100.00;102465.16;5031736;28;20041;-31
2021/11/11 08:20:27;;;;;;;2.90;1.17;;;;;;;12.50;100.00;102468.53;5030522;28;20549;-31
2021/11/11 08:22:55;;;;;;;4.70;1.00;;;;;;;12.51;100.00;102467.44;5031573;28;20060;-32
2021/11/11 08:25:23;;;;;;;2.28;1.13;;;;;;;12.53;100.00;102462.41;5031274;28;20065;-31
2021/11/11 08:27:53;;;;;;;3.78;1.20;;;;;;;12.56;100.00;102455.41;5031131;28;20052;-32
2021/11/11 08:30:21;;;;;;;2.45;0.63;;;;;;;12.59;100.00;102471.69;5031235;28;20064;-32
2021/11/11 08:32:51;;;;;;;2.47;0.73;;;;;;;12.61;100.00;102464.66;5031165;28;20041;-33
2021/11/11 08:35:21;;;;;;;1.30;0.70;;;;;;;12.64;100.00;102461.31;5030501;28;20128;-32
2021/11/11 08:37:51;;;;;;;2.30;1.10;;;;;;;12.68;100.00;102458.81;5031311;28;20166;-35
2021/11/11 08:40:19;;;;;;;2.63;0.82;;;;;;;12.69;100.00;102454.91;5030508;28;20047;-34
2021/11/11 08:42:49;;;;;;;1.83;0.68;;;;;;;12.71;100.00;102456.31;5031257;28;20411;-33
2021/11/11 08:45:19;;;;;;;;;;;;;;;12.68;100.00;102458.81;5017557;28;20052;-32
2021/11/11 08:47:49;;;;;;;1.98;0.90;;;;;;;12.68;100.00;102456.00;5028972;28;19975;-34
2021/11/11 08:50:16;;;;;;;2.67;0.80;;;;;;;12.73;100.00;102459.69;5031034;28;20049;-33
2021/11/11 08:52:45;;;;;;;1.30;0.60;;;;;;;12.79;100.00;102451.31;5024508;28;20045;-31
2021/11/11 08:55:16;;;;;;;1.55;0.82;;;;;;;12.82;100.00;102450.72;5030406;28;20495;-33
2021/11/11 08:57:44;;;;;;;2.80;0.80;;;;;;;12.84;100.00;102452.16;5030892;28;20050;-38
2021/11/11 09:00:16;;;;;;;1.65;0.80;;;;;;;12.88;100.00;102455.25;5030687;28;20045;-37
2021/11/11 09:02:45;;;;;;;1.63;0.70;;;;;;;12.90;100.00;102458.59;5030559;28;20064;-34
2021/11/11 09:05:13;;;;;;;3.00;0.80;;;;;;;12.94;100.00;102457.78;5030879;28;20060;-31
2021/11/11 09:07:41;;;;;;;2.75;1.02;;;;;;;12.97;100.00;102451.63;5030774;28;20392;-32
2021/11/11 09:10:13;;;;;;;1.63;0.70;;;;;;;13.00;100.00;102455.81;5030465;28;20414;-31
2021/11/11 09:12:42;;;;;;;1.57;0.80;;;;;;;13.04;100.00;102456.97;5030487;28;20048;-35
2021/11/11 09:15:13;;;;;;;1.83;0.85;;;;;;;13.07;100.00;102464.81;5030887;28;20057;-32
2021/11/11 09:17:42;;;;;;;3.13;0.80;;;;;;;13.08;100.00;102458.94;5030104;28;20415;-33
2021/11/11 09:20:11;;;;;;;4.43;1.10;;;;;;;13.09;100.00;102459.78;5030815;28;20054;-32
2021/11/11 09:22:39;;;;;;;20.98;8.77;;;;;;;13.08;100.00;102463.69;5030039;28;20045;-33
2021/11/11 09:25:10;;;;;;;13.45;8.07;;;;;;;13.06;100.00;102469.56;5030632;28;20053;-34
2021/11/11 09:27:40;;;;;;;15.88;8.35;;;;;;;13.02;100.00;102468.44;5034225;28;20053;-33
2021/11/11 09:30:13;;;;;;;14.00;8.63;;;;;;;13.02;100.00;102462.00;5034047;28;20053;-34
2021/11/11 09:32:42;;;;;;;25.27;14.63;;;;;;;12.98;100.00;102458.09;5034776;28;20045;-32
2021/11/11 09:35:10;;;;;;;25.10;13.90;;;;;;;12.97;100.00;102464.81;5030814;28;20502;-32
2021/11/11 09:37:39;;;;;;;23.00;13.93;;;;;;;12.92;100.00;102465.63;5033992;28;20053;-34
2021/11/11 09:40:10;;;;;;;19.67;12.80;;;;;;;12.86;100.00;102463.06;5034032;28;20045;-32
2021/11/11 09:42:44;;;;;;;17.70;10.70;;;;;;;12.84;100.00;102473.72;5033511;28;20056;-32
2021/11/11 09:45:16;;;;;;;26.98;15.43;;;;;;;12.84;100.00;102468.09;5033660;28;20084;-35
2021/11/11 09:47:46;;;;;;;25.67;15.55;;;;;;;12.76;100.00;102475.09;5034546;28;20046;-31
2021/11/11 09:50:15;;;;;;;23.25;13.63;;;;;;;12.73;100.00;102479.28;5034044;28;20045;-32
2021/11/11 09:52:44;;;;;;;29.75;16.15;;;;;;;12.71;100.00;102478.72;5034002;28;20409;-32
2021/11/11 10:00:54;;;;;;;22.92;15.35;;;;;;;12.62;100.00;102465.50;5004363;28;20042;-35
2021/11/11 10:03:22;;;;;;;23.65;14.02;;;;;;;12.62;100.00;102471.94;5034134;28;20042;-32
2021/11/11 10:05:50;;;;;;;25.65;15.73;;;;;;;12.63;100.00;102476.44;5033403;28;20053;-32
2021/11/11 10:08:32;;;;;;;24.35;14.40;;;;;;;12.64;100.00;102485.69;5034044;28;20053;-31
2021/11/11 10:11:01;;;;;;;20.95;14.20;;;;;;;12.63;100.00;102476.44;5033488;28;20042;-31
2021/11/11 10:13:30;;;;;;;20.13;13.18;;;;;;;12.66;100.00;102473.09;5033321;28;20095;-33
2021/11/11 10:16:07;;;;;;;26.52;16.38;;;;;;;12.67;100.00;102469.19;5033853;28;20052;-32
2021/11/11 10:18:37;;;;;;;27.67;16.77;;;;;;;12.67;100.00;102468.34;5033841;28;20791;-36
2021/11/11 10:21:21;;;;;;;30.60;19.83;;;;;;;12.68;100.00;102478.41;5033075;28;20049;-32
2021/11/11 10:23:49;;;;;;;30.80;20.00;;;;;;;12.63;100.00;102472.78;5023248;28;20403;-34
2021/11/11 10:26:22;;;;;;;28.77;18.40;;;;;;;12.62;100.00;102471.09;5033143;28;20545;-33
2021/11/11 10:28:50;;;;;;;;;;;;;;;12.55;100.00;102470.53;5034349;28;20418;-32
2021/11/11 10:31:21;;;;;;;30.60;18.70;;;;;;;12.54;100.00;102475.28;5033508;28;19921;-33
2021/11/11 10:34:06;;;;;;;31.30;18.50;;;;;;;12.57;100.00;102471.09;5032977;28;20146;-32
2021/11/11 10:36:39;;;;;;;32.55;20.70;;;;;;;12.57;100.00;102471.94;5033470;28;20511;-34
2021/11/11 10:39:21;;;;;;;25.92;15.75;;;;;;;12.58;100.00;102475.59;5022197;28;20048;-38
2021/11/11 10:41:49;;;;;;;24.63;17.15;;;;;;;12.61;100.00;102481.47;5032876;28;20049;-38
2021/11/11 10:44:23;;;;;;;33.63;20.58;;;;;;;12.65;100.00;102479.81;5033195;28;20391;-34
2021/11/11 10:46:55;;;;;;;33.97;18.92;;;;;;;12.64;100.00;102475.31;5033078;28;20071;-32
2021/11/11 10:49:27;;;;;;;31.67;18.38;;;;;;;12.64;100.00;102478.13;5020077;28;20041;-33
2021/11/11 10:51:56;;;;;;;26.83;17.48;;;;;;;12.65;100.00;102484.56;5033200;28;20041;-32
2021/11/11 10:54:23;;;;;;;29.63;18.45;;;;;;;12.66;100.00;102477.84;5032761;28;20056;-33
2021/11/11 10:56:51;;;;;;;25.58;15.52;;;;;;;12.64;100.00;102478.13;5026062;28;20041;-33
2021/11/11 10:59:21;;;;;;;26.38;16.13;;;;;;;12.65;100.00;102476.16;5033049;28;20041;-33
2021/11/11 11:02:05;;;;;;;28.77;16.90;;;;;;;12.66;100.00;102475.06;5032469;28;20400;-32
2021/11/11 11:04:35;;;;;;;28.88;16.77;;;;;;;12.65;100.00;102470.56;5033534;28;20037;-33
2021/11/11 11:07:15;;;;;;;24.95;14.70;;;;;;;12.68;100.00;102467.22;5032734;28;20053;-31
2021/11/11 11:09:42;;;;;;;27.30;16.30;;;;;;;12.67;100.00;102466.38;5032414;28;20044;-31
2021/11/11 11:12:28;;;;;;;27.10;17.00;;;;;;;12.69;100.00;102461.34;5032602;28;20073;-32
2021/11/11 11:14:56;;;;;;;21.50;13.25;;;;;;;12.68;100.00;102456.84;5033079;28;20057;-31
2021/11/11 11:17:25;;;;;;;21.85;13.30;;;;;;;12.71;100.00;102464.72;5032320;28;20041;-31
2021/11/11 11:20:18;;;;;;;30.95;15.50;;;;;;;12.74;100.00;102463.34;5032622;28;20056;-32
2021/11/11 11:22:45;;;;;;;20.67;12.93;;;;;;;12.72;100.00;102466.41;5025764;28;20045;-32
2021/11/11 11:25:14;;;;;;;25.10;13.82;;;;;;;12.73;100.00;102468.09;5032542;28;20056;-33
2021/11/11 11:27:42;;;;;;;24.23;14.77;;;;;;;12.74;100.00;102472.56;5032245;28;20060;-31
2021/11/11 11:30:13;;;;;;;26.92;14.57;;;;;;;12.76;100.00;102470.34;5032050;28;20041;-33
2021/11/11 11:32:43;;;;;;;20.27;12.27;;;;;;;12.77;100.00;102469.22;5029340;28;20034;-31
2021/11/11 11:35:13;;;;;;;17.52;11.52;;;;;;;12.82;100.00;102459.13;5032647;28;20055;-32
2021/11/11 11:37:41;;;;;;;18.35;12.13;;;;;;;12.85;100.00;102458.59;5031254;28;20417;-32
2021/11/11 11:40:12;;;;;;;18.10;11.02;;;;;;;12.88;100.00;102458.88;5032615;28;20069;-33
2021/11/11 11:42:42;;;;;;;18.80;11.07;;;;;;;12.89;100.00;102456.94;5031746;28;20049;-31